Truxton, Arizona
Current Conditions -  °F | °C
As of 7:51 AM on Monday 22 Dec 2014 (Local Time) from KIGM Reporting Station
Clear Clear  
Wind Chill: 35°   Ceiling: Unl
Heat Index: 35°   Visibility: NA
Dew Point: 32°   Wind: 0mph
Humidity: 89%   Direction: NA
Pressure: 30.09"   Gusts: NA
Location:  35.5603°N, 113.544°W
Report Text: KIGM 221451Z AUTO 00000KT CLR 02/00 A3009 RMK AO2 SLP170 T00170000 53002 $
Loading
Personal Weather Stations






























Interactive Weather Map New forecast layout! Learn more

10-Day Weather Forecast

Advertisements
Track Severe Weather on mobile